Time,TemperatureF,DewpointF,PressureIn,WindDirection,WindDirectionDegrees,WindSpeedMPH,WindSpeedGustMPH,Humidity,HourlyPrecipIn,Conditions,Clouds,dailyrainin,SoftwareType,DateUTC
2013-05-22 00:00:00,74.0,29.1,29.55,SSW,213,11.0,12.0,19,0.00,,,0.00,Wunderground v.1.15,2013-05-22 07:00:00,
2013-05-22 00:05:00,73.9,29.0,29.55,SW,219,9.0,16.0,19,0.00,,,0.00,Wunderground v.1.15,2013-05-22 07:05:00,
2013-05-22 00:15:00,73.7,30.1,29.55,SSW,200,10.0,17.0,20,0.00,,,0.00,Wunderground v.1.15,2013-05-22 07:15:00,
2013-05-22 00:20:00,73.5,29.9,29.55,SW,227,10.0,10.0,20,0.00,,,0.00,Wunderground v.1.15,2013-05-22 07:20:00,
2013-05-22 00:30:00,73.3,29.8,29.55,WSW,240,10.0,17.0,20,0.00,,,0.00,Wunderground v.1.15,2013-05-22 07:30:00,
2013-05-22 00:35:00,73.3,29.8,29.55,WSW,238,10.0,17.0,20,0.00,,,0.00,Wunderground v.1.15,2013-05-22 07:35:00,
2013-05-22 00:45:00,73.3,31.0,29.55,SW,236,12.0,12.0,21,0.00,,,0.00,Wunderground v.1.15,2013-05-22 07:45:00,
2013-05-22 00:50:00,73.2,30.9,29.55,SW,215,11.0,16.0,21,0.00,,,0.00,Wunderground v.1.15,2013-05-22 07:50:00,
2013-05-22 01:00:00,72.7,31.6,29.55,WSW,241,10.0,10.0,22,0.00,,,0.00,Wunderground v.1.15,2013-05-22 08:00:00,
2013-05-22 01:05:00,72.3,31.3,29.55,SW,236,9.0,10.0,22,0.00,,,0.00,Wunderground v.1.15,2013-05-22 08:05:00,
2013-05-22 01:15:00,72.3,31.3,29.55,SW,232,10.0,17.0,22,0.00,,,0.00,Wunderground v.1.15,2013-05-22 08:15:00,
2013-05-22 01:20:00,72.3,31.3,29.54,WSW,246,10.0,14.0,22,0.00,,,0.00,Wunderground v.1.15,2013-05-22 08:20:00,
2013-05-22 01:30:00,72.0,32.1,29.54,WSW,242,11.0,11.0,23,0.00,,,0.00,Wunderground v.1.15,2013-05-22 08:30:00,
2013-05-22 01:35:00,72.0,32.1,29.52,SW,217,12.0,12.0,23,0.00,,,0.00,Wunderground v.1.15,2013-05-22 08:35:00,
2013-05-22 01:45:00,72.3,32.4,29.52,SW,235,13.0,14.0,23,0.00,,,0.00,Wunderground v.1.15,2013-05-22 08:45:00,
2013-05-22 01:50:00,72.1,32.2,29.52,WSW,250,13.0,13.0,23,0.00,,,0.00,Wunderground v.1.15,2013-05-22 08:50:00,
2013-05-22 01:55:00,72.1,32.2,29.52,SSW,209,12.0,15.0,23,0.00,,,0.00,Wunderground v.1.15,2013-05-22 08:55:00,
2013-05-22 02:05:00,72.5,32.6,29.52,SW,223,13.0,13.0,23,0.00,,,0.00,Wunderground v.1.15,2013-05-22 09:05:00,
2013-05-22 02:15:00,71.8,33.0,29.52,SW,223,9.0,11.0,24,0.00,,,0.00,Wunderground v.1.15,2013-05-22 09:15:00,
2013-05-22 02:25:00,72.3,33.5,29.51,SSW,204,10.0,12.0,24,0.00,,,0.00,Wunderground v.1.15,2013-05-22 09:25:00,
2013-05-22 02:30:00,72.1,33.3,29.51,SW,220,11.0,12.0,24,0.00,,,0.00,Wunderground v.1.15,2013-05-22 09:30:00,
2013-05-22 02:40:00,72.0,34.2,29.50,WSW,250,11.0,11.0,25,0.00,,,0.00,Wunderground v.1.15,2013-05-22 09:40:00,
2013-05-22 02:45:00,71.8,34.1,29.50,SSW,206,10.0,12.0,25,0.00,,,0.00,Wunderground v.1.15,2013-05-22 09:45:00,
2013-05-22 02:55:00,71.5,33.8,29.51,SSW,212,8.0,9.0,25,0.00,,,0.00,Wunderground v.1.15,2013-05-22 09:55:00,
2013-05-22 03:00:00,71.5,33.8,29.51,SSW,206,8.0,14.0,25,0.00,,,0.00,Wunderground v.1.15,2013-05-22 10:00:00,
2013-05-22 03:05:00,71.1,33.5,29.50,SSW,213,10.0,14.0,25,0.00,,,0.00,Wunderground v.1.15,2013-05-22 10:05:00,
2013-05-22 03:15:00,71.3,33.6,29.50,SSW,210,11.0,12.0,25,0.00,,,0.00,Wunderground v.1.15,2013-05-22 10:15:00,
2013-05-22 03:20:00,70.9,33.3,29.49,WSW,245,10.0,10.0,25,0.00,,,0.00,Wunderground v.1.15,2013-05-22 10:20:00,
2013-05-22 03:30:00,70.9,33.3,29.49,SW,227,10.0,10.0,25,0.00,,,0.00,Wunderground v.1.15,2013-05-22 10:30:00,
2013-05-22 03:35:00,70.8,33.2,29.49,SW,216,9.0,10.0,25,0.00,,,0.00,Wunderground v.1.15,2013-05-22 10:35:00,
2013-05-22 03:45:00,71.1,33.5,29.49,West,279,12.0,12.0,25,0.00,,,0.00,Wunderground v.1.15,2013-05-22 10:45:00,
2013-05-22 03:55:00,71.1,33.5,29.48,SW,227,12.0,19.0,25,0.00,,,0.00,Wunderground v.1.15,2013-05-22 10:55:00,
2013-05-22 04:00:00,70.8,35.1,29.48,WSW,237,12.0,12.0,27,0.00,,,0.00,Wunderground v.1.15,2013-05-22 11:00:00,
2013-05-22 04:05:00,70.3,34.7,29.48,SSW,212,13.0,13.0,27,0.00,,,0.00,Wunderground v.1.15,2013-05-22 11:05:00,
2013-05-22 04:15:00,70.3,33.8,29.48,SSW,197,11.0,13.0,26,0.00,,,0.00,Wunderground v.1.15,2013-05-22 11:15:00,
2013-05-22 04:20:00,70.4,32.9,29.48,WSW,254,10.0,12.0,25,0.00,,,0.00,Wunderground v.1.15,2013-05-22 11:20:00,
2013-05-22 04:30:00,70.4,32.9,29.48,SW,216,9.0,9.0,25,0.00,,,0.00,Wunderground v.1.15,2013-05-22 11:30:00,
2013-05-22 04:35:00,70.3,32.8,29.48,SW,218,9.0,16.0,25,0.00,,,0.00,Wunderground v.1.15,2013-05-22 11:35:00,
2013-05-22 04:45:00,69.9,32.5,29.48,SSW,203,10.0,16.0,25,0.00,,,0.00,Wunderground v.1.15,2013-05-22 11:45:00,
2013-05-22 04:50:00,69.8,32.4,29.48,SSW,198,8.0,8.0,25,0.00,,,0.00,Wunderground v.1.15,2013-05-22 11:50:00,
2013-05-22 05:00:00,70.1,31.6,29.48,SW,219,9.0,10.0,24,0.00,,,0.00,Wunderground v.1.15,2013-05-22 12:00:00,
2013-05-22 05:05:00,70.1,32.6,29.48,SW,221,10.0,10.0,25,0.00,,,0.00,Wunderground v.1.15,2013-05-22 12:05:00,
2013-05-22 05:15:00,69.6,32.2,29.48,SSW,206,9.0,10.0,25,0.00,,,0.00,Wunderground v.1.15,2013-05-22 12:15:00,
2013-05-22 05:20:00,69.3,31.9,29.48,SSW,207,8.0,8.0,25,0.00,,,0.00,Wunderground v.1.15,2013-05-22 12:20:00,
2013-05-22 05:25:00,69.3,31.9,29.48,SSW,202,8.0,12.0,25,0.00,,,0.00,Wunderground v.1.15,2013-05-22 12:25:00,
2013-05-22 05:35:00,68.6,31.3,29.47,SSW,204,9.0,9.0,25,0.00,,,0.00,Wunderground v.1.15,2013-05-22 12:35:00,
2013-05-22 05:40:00,68.8,31.5,29.47,South,187,11.0,12.0,25,0.00,,,0.00,Wunderground v.1.15,2013-05-22 12:40:00,
2013-05-22 05:50:00,68.8,31.5,29.47,SSW,202,10.0,10.0,25,0.00,,,0.00,Wunderground v.1.15,2013-05-22 12:50:00,
2013-05-22 06:00:00,68.8,31.5,29.47,SW,217,9.0,11.0,25,0.00,,,0.00,Wunderground v.1.15,2013-05-22 13:00:00,
2013-05-22 06:05:00,68.8,31.5,29.47,SSW,200,10.0,11.0,25,0.00,,,0.00,Wunderground v.1.15,2013-05-22 13:05:00,
2013-05-22 06:15:00,68.9,31.6,29.47,SW,223,12.0,12.0,25,0.00,,,0.00,Wunderground v.1.15,2013-05-22 13:15:00,
2013-05-22 06:20:00,68.9,31.6,29.46,SW,225,13.0,13.0,25,0.00,,,0.00,Wunderground v.1.15,2013-05-22 13:20:00,
2013-05-22 06:25:00,68.9,31.6,29.46,WSW,248,14.0,14.0,25,0.00,,,0.00,Wunderground v.1.15,2013-05-22 13:25:00,
2013-05-22 06:30:00,68.9,30.6,29.46,SW,221,14.0,14.0,24,0.00,,,0.00,Wunderground v.1.15,2013-05-22 13:30:00,
2013-05-22 06:40:00,67.1,32.0,29.47,SSW,201,10.0,14.0,27,0.00,,,0.00,Wunderground v.1.15,2013-05-22 13:40:00,
2013-05-22 06:50:00,67.9,30.8,29.48,South,187,11.0,11.0,25,0.00,,,0.00,Wunderground v.1.15,2013-05-22 13:50:00,
2013-05-22 06:55:00,68.3,31.1,29.48,South,185,12.0,14.0,25,0.00,,,0.00,Wunderground v.1.15,2013-05-22 13:55:00,
2013-05-22 07:05:00,68.4,31.2,29.48,SW,234,11.0,13.0,25,0.00,,,0.00,Wunderground v.1.15,2013-05-22 14:05:00,
2013-05-22 07:15:00,68.1,30.9,29.48,SW,234,11.0,11.0,25,0.00,,,0.00,Wunderground v.1.15,2013-05-22 14:15:00,
2013-05-22 07:20:00,68.4,31.2,29.48,SSW,202,11.0,11.0,25,0.00,,,0.00,Wunderground v.1.15,2013-05-22 14:20:00,
2013-05-22 07:30:00,68.8,30.5,29.48,SW,229,12.0,13.0,24,0.00,,,0.00,Wunderground v.1.15,2013-05-22 14:30:00,
2013-05-22 07:35:00,68.9,30.6,29.48,SSW,198,12.0,13.0,24,0.00,,,0.00,Wunderground v.1.15,2013-05-22 14:35:00,
2013-05-22 07:45:00,68.8,30.5,29.48,South,183,11.0,11.0,24,0.00,,,0.00,Wunderground v.1.15,2013-05-22 14:45:00,
2013-05-22 07:55:00,68.6,30.3,29.48,SSE,163,8.0,11.0,24,0.00,,,0.00,Wunderground v.1.15,2013-05-22 14:55:00,
2013-05-22 08:00:00,68.3,31.1,29.48,SW,231,6.0,6.0,25,0.00,,,0.00,Wunderground v.1.15,2013-05-22 15:00:00,
2013-05-22 08:05:00,68.1,30.9,29.48,SSW,203,4.0,12.0,25,0.00,,,0.00,Wunderground v.1.15,2013-05-22 15:05:00,
2013-05-22 08:15:00,67.9,30.8,29.48,SSE,151,3.0,3.0,25,0.00,,,0.00,Wunderground v.1.15,2013-05-22 15:15:00,
2013-05-22 08:20:00,68.3,31.1,29.49,SSW,198,2.0,5.0,25,0.00,,,0.00,Wunderground v.1.15,2013-05-22 15:20:00,
2013-05-22 08:30:00,68.6,29.3,29.49,South,180,1.0,1.0,23,0.00,,,0.00,Wunderground v.1.15,2013-05-22 15:30:00,
2013-05-22 08:35:00,69.1,29.7,29.49,SW,226,1.0,10.0,23,0.00,,,0.00,Wunderground v.1.15,2013-05-22 15:35:00,
2013-05-22 08:40:00,68.9,29.5,29.49,South,181,2.0,6.0,23,0.00,,,0.00,Wunderground v.1.15,2013-05-22 15:40:00,
2013-05-22 08:50:00,68.6,29.3,29.48,SW,228,7.0,15.0,23,0.00,,,0.00,Wunderground v.1.15,2013-05-22 15:50:00,
2013-05-22 08:55:00,69.3,28.8,29.48,SW,225,10.0,15.0,22,0.00,,,0.00,Wunderground v.1.15,2013-05-22 15:55:00,
2013-05-22 09:00:00,69.3,29.9,29.48,SW,215,12.0,12.0,23,0.00,,,0.00,Wunderground v.1.15,2013-05-22 16:00:00,
2013-05-22 09:05:00,69.6,29.0,29.48,SW,223,13.0,16.0,22,0.00,,,0.00,Wunderground v.1.15,2013-05-22 16:05:00,
2013-05-22 09:15:00,71.1,28.0,29.48,South,182,11.0,15.0,20,0.00,,,0.00,Wunderground v.1.15,2013-05-22 16:15:00,
2013-05-22 09:20:00,70.9,29.0,29.49,SSW,213,8.0,8.0,21,0.00,,,0.00,Wunderground v.1.15,2013-05-22 16:20:00,
2013-05-22 09:30:00,72.1,28.8,29.49,SSW,194,2.0,2.0,20,0.00,,,0.00,Wunderground v.1.15,2013-05-22 16:30:00,
2013-05-22 09:35:00,72.5,29.1,29.49,SE,142,1.0,2.0,20,0.00,,,0.00,Wunderground v.1.15,2013-05-22 16:35:00,
2013-05-22 09:45:00,72.7,31.6,29.49,South,183,1.0,1.0,22,0.00,,,0.00,Wunderground v.1.15,2013-05-22 16:45:00,
2013-05-22 09:55:00,75.3,26.0,29.48,SW,225,2.0,2.0,16,0.00,,,0.00,Wunderground v.1.15,2013-05-22 16:55:00,
2013-05-22 10:00:00,76.1,23.4,29.48,SW,228,6.0,6.0,14,0.00,,,0.00,Wunderground v.1.15,2013-05-22 17:00:00,
2013-05-22 10:05:00,76.5,22.0,29.47,SW,226,10.0,15.0,13,0.00,,,0.00,Wunderground v.1.15,2013-05-22 17:05:00,
2013-05-22 10:15:00,77.4,24.4,29.47,SW,220,14.0,19.0,14,0.00,,,0.00,Wunderground v.1.15,2013-05-22 17:15:00,
2013-05-22 10:20:00,77.6,22.8,29.46,SSW,198,13.0,14.0,13,0.00,,,0.00,Wunderground v.1.15,2013-05-22 17:20:00,
2013-05-22 10:30:00,78.1,23.2,29.46,SSW,209,14.0,17.0,13,0.00,,,0.00,Wunderground v.1.15,2013-05-22 17:30:00,
2013-05-22 10:35:00,77.9,21.2,29.46,SSW,205,16.0,20.0,12,0.00,,,0.00,Wunderground v.1.15,2013-05-22 17:35:00,
2013-05-22 10:45:00,78.5,19.6,29.46,SSW,209,15.0,15.0,11,0.00,,,0.00,Wunderground v.1.15,2013-05-22 17:45:00,
2013-05-22 10:50:00,79.0,20.0,29.46,SSW,198,15.0,15.0,11,0.00,,,0.00,Wunderground v.1.15,2013-05-22 17:50:00,
2013-05-22 11:00:00,79.6,20.4,29.46,SW,223,14.0,14.0,11,0.00,,,0.00,Wunderground v.1.15,2013-05-22 18:00:00,
2013-05-22 11:05:00,79.4,20.3,29.46,SW,217,14.0,14.0,11,0.00,,,0.00,Wunderground v.1.15,2013-05-22 18:05:00,
2013-05-22 11:15:00,80.1,20.8,29.46,SW,219,11.0,16.0,11,0.00,,,0.00,Wunderground v.1.15,2013-05-22 18:15:00,
2013-05-22 11:20:00,79.9,20.7,29.45,SSW,193,13.0,23.0,11,0.00,,,0.00,Wunderground v.1.15,2013-05-22 18:20:00,
2013-05-22 11:25:00,79.6,22.5,29.45,SSE,167,15.0,23.0,12,0.00,,,0.00,Wunderground v.1.15,2013-05-22 18:25:00,
2013-05-22 11:35:00,80.1,20.8,29.45,SW,218,14.0,25.0,11,0.00,,,0.00,Wunderground v.1.15,2013-05-22 18:35:00,
2013-05-22 11:45:00,80.7,21.3,29.45,SSW,207,17.0,21.0,11,0.00,,,0.00,Wunderground v.1.15,2013-05-22 18:45:00,
2013-05-22 11:55:00,81.2,21.7,29.45,SW,219,14.0,19.0,11,0.00,,,0.00,Wunderground v.1.15,2013-05-22 18:55:00,
2013-05-22 12:00:00,81.1,25.6,29.45,SSW,211,15.0,21.0,13,0.00,,,0.00,Wunderground v.1.15,2013-05-22 19:00:00,
2013-05-22 12:05:00,81.1,23.7,29.44,SSW,202,15.0,21.0,12,0.00,,,0.00,Wunderground v.1.15,2013-05-22 19:05:00,
2013-05-22 12:15:00,80.7,25.3,29.44,SE,140,15.0,17.0,13,0.00,,,0.00,Wunderground v.1.15,2013-05-22 19:15:00,
2013-05-22 12:20:00,80.3,24.9,29.44,SSW,196,14.0,14.0,13,0.00,,,0.00,Wunderground v.1.15,2013-05-22 19:20:00,
2013-05-22 12:30:00,81.1,21.6,29.44,South,172,14.0,16.0,11,0.00,,,0.00,Wunderground v.1.15,2013-05-22 19:30:00,
2013-05-22 12:35:00,80.9,21.4,29.44,SSW,201,16.0,17.0,11,0.00,,,0.00,Wunderground v.1.15,2013-05-22 19:35:00,
2013-05-22 12:40:00,80.1,24.8,29.44,South,173,15.0,15.0,13,0.00,,,0.00,Wunderground v.1.15,2013-05-22 19:40:00,
2013-05-22 12:50:00,81.8,22.1,29.44,SW,220,13.0,14.0,11,0.00,,,0.00,Wunderground v.1.15,2013-05-22 19:50:00,
2013-05-22 13:00:00,82.4,22.6,29.44,SW,216,14.0,26.0,11,0.00,,,0.00,Wunderground v.1.15,2013-05-22 20:00:00,
2013-05-22 13:05:00,82.0,22.3,29.44,SSW,195,15.0,26.0,11,0.00,,,0.00,Wunderground v.1.15,2013-05-22 20:05:00,
2013-05-22 13:15:00,81.8,22.1,29.44,South,191,15.0,15.0,11,0.00,,,0.00,Wunderground v.1.15,2013-05-22 20:15:00,
2013-05-22 13:20:00,81.6,22.0,29.44,SSW,192,17.0,17.0,11,0.00,,,0.00,Wunderground v.1.15,2013-05-22 20:20:00,
2013-05-22 13:30:00,81.6,22.0,29.44,SW,232,18.0,18.0,11,0.00,,,0.00,Wunderground v.1.15,2013-05-22 20:30:00,
2013-05-22 13:35:00,82.6,20.5,29.43,SW,216,18.0,18.0,10,0.00,,,0.00,Wunderground v.1.15,2013-05-22 20:35:00,
2013-05-22 13:45:00,82.0,22.3,29.43,SSW,204,17.0,17.0,11,0.00,,,0.00,Wunderground v.1.15,2013-05-22 20:45:00,
2013-05-22 13:55:00,82.4,20.3,29.43,SW,222,16.0,20.0,10,0.00,,,0.00,Wunderground v.1.15,2013-05-22 20:55:00,
2013-05-22 14:00:00,82.2,20.2,29.43,SSW,210,18.0,18.0,10,0.00,,,0.00,Wunderground v.1.15,2013-05-22 21:00:00,
2013-05-22 14:05:00,82.4,20.3,29.43,SW,223,19.0,22.0,10,0.00,,,0.00,Wunderground v.1.15,2013-05-22 21:05:00,
2013-05-22 14:15:00,82.4,17.9,29.43,SSW,203,19.0,25.0,9,0.00,,,0.00,Wunderground v.1.15,2013-05-22 21:15:00,
2013-05-22 14:20:00,82.2,20.2,29.44,SW,223,19.0,23.0,10,0.00,,,0.00,Wunderground v.1.15,2013-05-22 21:20:00,
2013-05-22 14:30:00,81.8,17.4,29.44,SW,215,19.0,19.0,9,0.00,,,0.00,Wunderground v.1.15,2013-05-22 21:30:00,
2013-05-22 14:40:00,82.0,20.0,29.44,South,169,18.0,20.0,10,0.00,,,0.00,Wunderground v.1.15,2013-05-22 21:40:00,
2013-05-22 14:45:00,81.8,19.9,29.44,SW,217,17.0,20.0,10,0.00,,,0.00,Wunderground v.1.15,2013-05-22 21:45:00,
2013-05-22 14:50:00,82.2,20.2,29.43,SW,224,17.0,20.0,10,0.00,,,0.00,Wunderground v.1.15,2013-05-22 21:50:00,
2013-05-22 15:00:00,81.6,19.7,29.43,SW,229,17.0,25.0,10,0.00,,,0.00,Wunderground v.1.15,2013-05-22 22:00:00,
2013-05-22 15:05:00,81.6,19.7,29.43,SW,216,18.0,25.0,10,0.00,,,0.00,Wunderground v.1.15,2013-05-22 22:05:00,
2013-05-22 15:15:00,81.6,17.3,29.43,SSW,212,18.0,23.0,9,0.00,,,0.00,Wunderground v.1.15,2013-05-22 22:15:00,
2013-05-22 15:20:00,81.8,19.9,29.43,SSW,196,18.0,20.0,10,0.00,,,0.00,Wunderground v.1.15,2013-05-22 22:20:00,
2013-05-22 15:30:00,80.9,19.2,29.43,SW,226,19.0,20.0,10,0.00,,,0.00,Wunderground v.1.15,2013-05-22 22:30:00,
2013-05-22 15:35:00,80.9,19.2,29.43,SW,219,19.0,20.0,10,0.00,,,0.00,Wunderground v.1.15,2013-05-22 22:35:00,
2013-05-22 15:45:00,81.1,16.9,29.43,SSW,199,17.0,19.0,9,0.00,,,0.00,Wunderground v.1.15,2013-05-22 22:45:00,
2013-05-22 15:55:00,80.3,18.7,29.43,SSW,202,19.0,19.0,10,0.00,,,0.00,Wunderground v.1.15,2013-05-22 22:55:00,
2013-05-22 16:00:00,80.3,18.7,29.43,South,188,19.0,22.0,10,0.00,,,0.00,Wunderground v.1.15,2013-05-22 23:00:00,
2013-05-22 16:05:00,79.8,15.9,29.43,South,188,21.0,32.0,9,0.00,,,0.00,Wunderground v.1.15,2013-05-22 23:05:00,
2013-05-22 16:15:00,79.8,15.9,29.43,WSW,248,23.0,32.0,9,0.00,,,0.00,Wunderground v.1.15,2013-05-22 23:15:00,
2013-05-22 16:25:00,79.9,16.0,29.42,SW,220,22.0,23.0,9,0.00,,,0.00,Wunderground v.1.15,2013-05-22 23:25:00,
2013-05-22 16:30:00,79.4,15.6,29.42,SW,217,22.0,30.0,9,0.00,,,0.00,Wunderground v.1.15,2013-05-22 23:30:00,
2013-05-22 16:40:00,79.2,17.9,29.42,WSW,240,23.0,23.0,10,0.00,,,0.00,Wunderground v.1.15,2013-05-22 23:40:00,
2013-05-22 16:45:00,79.2,15.5,29.42,SW,228,23.0,23.0,9,0.00,,,0.00,Wunderground v.1.15,2013-05-22 23:45:00,
2013-05-22 16:55:00,78.3,14.8,29.42,SW,224,23.0,23.0,9,0.00,,,0.00,Wunderground v.1.15,2013-05-22 23:55:00,
2013-05-22 17:05:00,77.7,16.7,29.41,SW,224,23.0,24.0,10,0.00,,,0.00,Wunderground v.1.15,2013-05-23 00:05:00,
2013-05-22 17:15:00,77.9,19.1,29.41,SSW,198,24.0,24.0,11,0.00,,,0.00,Wunderground v.1.15,2013-05-23 00:15:00,
2013-05-22 17:25:00,77.6,18.9,29.41,SW,232,24.0,27.0,11,0.00,,,0.00,Wunderground v.1.15,2013-05-23 00:25:00,
2013-05-22 17:30:00,77.6,16.7,29.41,SSW,204,22.0,25.0,10,0.00,,,0.00,Wunderground v.1.15,2013-05-23 00:30:00,
2013-05-22 17:40:00,76.8,16.1,29.40,WSW,249,22.0,22.0,10,0.00,,,0.00,Wunderground v.1.15,2013-05-23 00:40:00,
2013-05-22 17:50:00,76.1,15.5,29.41,WSW,250,22.0,24.0,10,0.00,,,0.00,Wunderground v.1.15,2013-05-23 00:50:00,
2013-05-22 17:55:00,75.6,17.3,29.41,South,187,22.0,27.0,11,0.00,,,0.00,Wunderground v.1.15,2013-05-23 00:55:00,
2013-05-22 18:05:00,75.3,17.1,29.42,SW,232,22.0,23.0,11,0.00,,,0.00,Wunderground v.1.15,2013-05-23 01:05:00,
2013-05-22 18:15:00,74.7,16.6,29.42,West,261,22.0,27.0,11,0.00,,,0.00,Wunderground v.1.15,2013-05-23 01:15:00,
2013-05-22 18:25:00,73.9,16.0,29.41,SW,232,22.0,26.0,11,0.00,,,0.00,Wunderground v.1.15,2013-05-23 01:25:00,
2013-05-22 18:30:00,73.7,17.9,29.41,SSW,207,22.0,22.0,12,0.00,,,0.00,Wunderground v.1.15,2013-05-23 01:30:00,
2013-05-22 18:40:00,72.8,17.2,29.41,WSW,257,22.0,22.0,12,0.00,,,0.00,Wunderground v.1.15,2013-05-23 01:40:00,
2013-05-22 18:45:00,72.3,16.8,29.41,WSW,250,21.0,27.0,12,0.00,,,0.00,Wunderground v.1.15,2013-05-23 01:45:00,
2013-05-22 18:55:00,71.6,16.2,29.41,SW,228,20.0,24.0,12,0.00,,,0.00,Wunderground v.1.15,2013-05-23 01:55:00,
2013-05-22 19:00:00,71.3,17.9,29.41,SSW,211,21.0,21.0,13,0.00,,,0.00,Wunderground v.1.15,2013-05-23 02:00:00,
2013-05-22 19:05:00,71.1,15.9,29.42,South,191,20.0,21.0,12,0.00,,,0.00,Wunderground v.1.15,2013-05-23 02:05:00,
2013-05-22 19:15:00,70.4,17.2,29.42,SW,215,15.0,16.0,13,0.00,,,0.00,Wunderground v.1.15,2013-05-23 02:15:00,
2013-05-22 19:20:00,70.1,16.9,29.44,SW,226,13.0,13.0,13,0.00,,,0.00,Wunderground v.1.15,2013-05-23 02:20:00,
2013-05-22 19:30:00,69.4,18.1,29.44,SW,225,12.0,12.0,14,0.00,,,0.00,Wunderground v.1.15,2013-05-23 02:30:00,
2013-05-22 19:35:00,69.1,16.1,29.44,SSW,209,12.0,12.0,13,0.00,,,0.00,Wunderground v.1.15,2013-05-23 02:35:00,
2013-05-22 19:45:00,68.4,17.3,29.44,SW,214,8.0,10.0,14,0.00,,,0.00,Wunderground v.1.15,2013-05-23 02:45:00,
2013-05-22 19:50:00,68.3,17.2,29.45,SW,214,6.0,6.0,14,0.00,,,0.00,Wunderground v.1.15,2013-05-23 02:50:00,
2013-05-22 20:00:00,67.8,16.8,29.45,SW,217,8.0,15.0,14,0.00,,,0.00,Wunderground v.1.15,2013-05-23 03:00:00,
2013-05-22 20:05:00,67.4,19.6,29.45,SSW,197,10.0,15.0,16,0.00,,,0.00,Wunderground v.1.15,2013-05-23 03:05:00,
2013-05-22 20:15:00,66.9,19.2,29.45,SW,215,8.0,19.0,16,0.00,,,0.00,Wunderground v.1.15,2013-05-23 03:15:00,
2013-05-22 20:20:00,66.6,19.0,29.45,SSW,193,11.0,14.0,16,0.00,,,0.00,Wunderground v.1.15,2013-05-23 03:20:00,
2013-05-22 20:25:00,66.4,21.6,29.45,SW,225,13.0,19.0,18,0.00,,,0.00,Wunderground v.1.15,2013-05-23 03:25:00,
2013-05-22 20:35:00,66.0,21.2,29.45,South,175,12.0,16.0,18,0.00,,,0.00,Wunderground v.1.15,2013-05-23 03:35:00,
2013-05-22 20:45:00,65.3,23.2,29.45,SSW,195,9.0,14.0,20,0.00,,,0.00,Wunderground v.1.15,2013-05-23 03:45:00,
2013-05-22 20:50:00,64.7,23.8,29.46,SSW,199,7.0,7.0,21,0.00,,,0.00,Wunderground v.1.15,2013-05-23 03:50:00,
2013-05-22 21:00:00,64.3,23.5,29.46,SSW,199,8.0,8.0,21,0.00,,,0.00,Wunderground v.1.15,2013-05-23 04:00:00,
2013-05-22 21:05:00,64.0,24.4,29.46,SSW,207,8.0,8.0,22,0.00,,,0.00,Wunderground v.1.15,2013-05-23 04:05:00,
2013-05-22 21:15:00,63.7,24.1,29.46,SSE,154,9.0,17.0,22,0.00,,,0.00,Wunderground v.1.15,2013-05-23 04:15:00,
2013-05-22 21:20:00,63.7,24.1,29.47,SSW,200,11.0,14.0,22,0.00,,,0.00,Wunderground v.1.15,2013-05-23 04:20:00,
2013-05-22 21:25:00,63.7,25.2,29.47,SSW,196,12.0,14.0,23,0.00,,,0.00,Wunderground v.1.15,2013-05-23 04:25:00,
2013-05-22 21:30:00,63.5,25.0,29.47,South,191,13.0,13.0,23,0.00,,,0.00,Wunderground v.1.15,2013-05-23 04:30:00,
2013-05-22 21:35:00,63.5,25.0,29.47,South,188,14.0,14.0,23,0.00,,,0.00,Wunderground v.1.15,2013-05-23 04:35:00,
2013-05-22 21:40:00,63.5,25.0,29.47,SSW,197,13.0,13.0,23,0.00,,,0.00,Wunderground v.1.15,2013-05-23 04:40:00,
2013-05-22 21:45:00,63.4,24.9,29.47,SSW,194,12.0,13.0,23,0.00,,,0.00,Wunderground v.1.15,2013-05-23 04:45:00,
2013-05-22 21:55:00,63.1,24.7,29.47,SSE,153,11.0,13.0,23,0.00,,,0.00,Wunderground v.1.15,2013-05-23 04:55:00,
2013-05-22 22:00:00,63.2,24.7,29.47,South,184,13.0,16.0,23,0.00,,,0.00,Wunderground v.1.15,2013-05-23 05:00:00,
2013-05-22 22:05:00,63.2,23.7,29.47,SSW,194,15.0,16.0,22,0.00,,,0.00,Wunderground v.1.15,2013-05-23 05:05:00,
2013-05-22 22:15:00,62.7,25.3,29.47,SW,231,12.0,23.0,24,0.00,,,0.00,Wunderground v.1.15,2013-05-23 05:15:00,
2013-05-22 22:20:00,62.7,24.3,29.47,WSW,253,11.0,19.0,23,0.00,,,0.00,Wunderground v.1.15,2013-05-23 05:20:00,
2013-05-22 22:30:00,63.2,23.7,29.47,WSW,243,15.0,15.0,22,0.00,,,0.00,Wunderground v.1.15,2013-05-23 05:30:00,
2013-05-22 22:35:00,62.9,24.5,29.47,SSW,204,15.0,15.0,23,0.00,,,0.00,Wunderground v.1.15,2013-05-23 05:35:00,
2013-05-22 22:45:00,63.4,23.8,29.47,SSW,213,13.0,18.0,22,0.00,,,0.00,Wunderground v.1.15,2013-05-23 05:45:00,
2013-05-22 22:55:00,63.2,24.7,29.47,SSW,192,15.0,15.0,23,0.00,,,0.00,Wunderground v.1.15,2013-05-23 05:55:00,
2013-05-22 23:00:00,62.7,26.3,29.47,SW,234,15.0,16.0,25,0.00,,,0.00,Wunderground v.1.15,2013-05-23 06:00:00,
2013-05-22 23:05:00,62.3,26.9,29.47,South,190,13.0,18.0,26,0.00,,,0.00,Wunderground v.1.15,2013-05-23 06:05:00,
2013-05-22 23:15:00,61.2,26.0,29.47,SW,214,9.0,15.0,26,0.00,,,0.00,Wunderground v.1.15,2013-05-23 06:15:00,
2013-05-22 23:20:00,61.6,25.4,29.48,SW,224,9.0,23.0,25,0.00,,,0.00,Wunderground v.1.15,2013-05-23 06:20:00,
2013-05-22 23:30:00,61.8,24.6,29.48,SSW,206,12.0,12.0,24,0.00,,,0.00,Wunderground v.1.15,2013-05-23 06:30:00,
2013-05-22 23:35:00,61.6,25.4,29.49,SSW,206,9.0,12.0,25,0.00,,,0.00,Wunderground v.1.15,2013-05-23 06:35:00,
2013-05-22 23:45:00,61.5,25.3,29.49,SSW,192,3.0,5.0,25,0.00,,,0.00,Wunderground v.1.15,2013-05-23 06:45:00,
2013-05-22 23:50:00,61.3,25.1,29.49,South,172,3.0,3.0,25,0.00,,,0.00,Wunderground v.1.15,2013-05-23 06:50:00,